This is the latest recevied weather packets stored in our database for station/object Oberstadn. If no packets are shown the sender has not sent any weather packets the latest 10 day(s).
| Time | Temp. | Humidity | Pressure | Rain* | Wind** | Luminosity | Snow |
|---|---|---|---|---|---|---|---|
| 1777165333 | 1.67° C | 81% | 1021 hPa | 0 mm | - | - | - |
| 1777163529 | 2.22° C | 81% | 1020.8 hPa | 0 mm | - | - | - |
| 1777161729 | 2.78° C | 79% | 1020.6 hPa | 0 mm | - | - | - |
| 1777159929 | 3.33° C | 77% | 1020.5 hPa | 0 mm | - | - | - |
| 1777158129 | 3.89° C | 77% | 1020.4 hPa | 0 mm | - | - | - |
| 1777156330 | 5° C | 75% | 1020.1 hPa | 0 mm | - | - | - |
| 1777152732 | 6.67° C | 70% | 1019.9 hPa | 0 mm | - | - | - |
| 1777150929 | 7.78° C | 67% | 1019.8 hPa | 0 mm | - | - | - |
| 1777149130 | 10.56° C | 59% | 1019.4 hPa | 0 mm | - | - | - |
| 1777147329 | 12.78° C | 49% | 1019.3 hPa | 0 mm | - | - | - |
| 1777145529 | 13.89° C | 47% | 1018.8 hPa | 0 mm | - | - | - |
| 1777143729 | 15° C | 46% | 1018.1 hPa | 0 mm | - | - | - |
| 1777141929 | 15° C | 47% | 1017.8 hPa | 0 mm | - | - | - |
| 1777140130 | 16.11° C | 49% | 1017.4 hPa | 0 mm | - | - | - |
| 1777138331 | 17.78° C | 46% | 1017 hPa | 0 mm | - | - | - |
| 1777136530 | 18.89° C | 40% | 1016.9 hPa | 0 mm | - | - | - |
| 1777134731 | 20.56° C | 37% | 1016.8 hPa | 0 mm | - | - | - |
| 1777132929 | 20.56° C | 34% | 1016.8 hPa | 0 mm | - | - | - |
| 1777131130 | 21.11° C | 31% | 1016.7 hPa | 0 mm | - | - | - |
| 1777129330 | 22.22° C | 28% | 1016.7 hPa | 0 mm | - | - | - |
| 1777127530 | 22.78° C | 25% | 1016.6 hPa | 0 mm | - | - | - |
| 1777125730 | 22.22° C | 32% | 1016.6 hPa | 0 mm | - | - | - |
| 1777123930 | 21.67° C | 33% | 1016.6 hPa | 0 mm | - | - | - |
* Rain since midnight (hover to see other rain measurements)
** Current wind speed in m/s (hover to see current wind gust speed)